sensor_id;sensor_type;location;lat;lon;timestamp;P1;durP1;ratioP1;P2;durP2;ratioP2
66597;SDS011;57424;53.128;6.406;2023-04-15T00:00:04;1.90;;;1.27;;
66597;SDS011;57424;53.128;6.406;2023-04-15T00:02:31;3.40;;;1.35;;
66597;SDS011;57424;53.128;6.406;2023-04-15T00:04:56;2.92;;;1.33;;
66597;SDS011;57424;53.128;6.406;2023-04-15T00:07:22;1.50;;;1.17;;
66597;SDS011;57424;53.128;6.406;2023-04-15T00:09:47;4.28;;;1.73;;
66597;SDS011;57424;53.128;6.406;2023-04-15T00:12:13;3.10;;;1.52;;
66597;SDS011;57424;53.128;6.406;2023-04-15T00:14:38;2.72;;;1.70;;
66597;SDS011;57424;53.128;6.406;2023-04-15T00:17:04;3.83;;;1.45;;
66597;SDS011;57424;53.128;6.406;2023-04-15T00:19:30;2.67;;;1.27;;
66597;SDS011;57424;53.128;6.406;2023-04-15T00:21:56;3.17;;;1.70;;
66597;SDS011;57424;53.128;6.406;2023-04-15T00:24:22;2.53;;;1.40;;
66597;SDS011;57424;53.128;6.406;2023-04-15T00:26:48;2.70;;;1.60;;
66597;SDS011;57424;53.128;6.406;2023-04-15T00:29:14;3.30;;;1.38;;
66597;SDS011;57424;53.128;6.406;2023-04-15T00:31:39;3.70;;;1.60;;
66597;SDS011;57424;53.128;6.406;2023-04-15T00:34:06;2.67;;;1.40;;
66597;SDS011;57424;53.128;6.406;2023-04-15T00:36:31;3.50;;;1.13;;
66597;SDS011;57424;53.128;6.406;2023-04-15T00:38:58;2.33;;;1.33;;
66597;SDS011;57424;53.128;6.406;2023-04-15T00:41:24;3.13;;;1.45;;
66597;SDS011;57424;53.128;6.406;2023-04-15T00:43:50;3.28;;;1.70;;
66597;SDS011;57424;53.128;6.406;2023-04-15T00:46:16;2.90;;;1.58;;
66597;SDS011;57424;53.128;6.406;2023-04-15T00:48:45;2.75;;;1.20;;
66597;SDS011;57424;53.128;6.406;2023-04-15T00:51:11;2.90;;;1.40;;
66597;SDS011;57424;53.128;6.406;2023-04-15T00:53:37;1.85;;;1.13;;
66597;SDS011;57424;53.128;6.406;2023-04-15T00:56:03;2.88;;;1.52;;
66597;SDS011;57424;53.128;6.406;2023-04-15T00:58:29;3.97;;;1.50;;
66597;SDS011;57424;53.128;6.406;2023-04-15T01:00:55;3.28;;;1.15;;
66597;SDS011;57424;53.128;6.406;2023-04-15T01:03:22;1.98;;;1.30;;
66597;SDS011;57424;53.128;6.406;2023-04-15T01:05:47;2.10;;;1.17;;
66597;SDS011;57424;53.128;6.406;2023-04-15T01:08:14;2.70;;;1.50;;
66597;SDS011;57424;53.128;6.406;2023-04-15T01:10:39;3.25;;;1.52;;
66597;SDS011;57424;53.128;6.406;2023-04-15T01:13:05;1.98;;;1.25;;
66597;SDS011;57424;53.128;6.406;2023-04-15T01:15:31;3.33;;;1.42;;
66597;SDS011;57424;53.128;6.406;2023-04-15T01:17:59;1.88;;;1.20;;
66597;SDS011;57424;53.128;6.406;2023-04-15T01:20:27;2.15;;;1.23;;
66597;SDS011;57424;53.128;6.406;2023-04-15T01:22:54;2.33;;;1.20;;
66597;SDS011;57424;53.128;6.406;2023-04-15T01:25:27;2.33;;;1.40;;
66597;SDS011;57424;53.128;6.406;2023-04-15T01:27:59;3.28;;;1.55;;
66597;SDS011;57424;53.128;6.406;2023-04-15T01:30:25;2.85;;;1.50;;
66597;SDS011;57424;53.128;6.406;2023-04-15T01:32:54;1.70;;;1.23;;
66597;SDS011;57424;53.128;6.406;2023-04-15T01:35:20;2.40;;;1.50;;
66597;SDS011;57424;53.128;6.406;2023-04-15T01:37:46;2.65;;;1.60;;
66597;SDS011;57424;53.128;6.406;2023-04-15T01:40:12;1.75;;;1.50;;
66597;SDS011;57424;53.128;6.406;2023-04-15T01:42:39;1.75;;;1.33;;
66597;SDS011;57424;53.128;6.406;2023-04-15T01:45:05;1.80;;;1.23;;
66597;SDS011;57424;53.128;6.406;2023-04-15T01:47:31;2.97;;;1.27;;
66597;SDS011;57424;53.128;6.406;2023-04-15T01:49:57;1.90;;;1.40;;
66597;SDS011;57424;53.128;6.406;2023-04-15T01:52:23;2.42;;;1.45;;
66597;SDS011;57424;53.128;6.406;2023-04-15T01:54:48;2.08;;;1.50;;
66597;SDS011;57424;53.128;6.406;2023-04-15T01:57:14;2.03;;;1.42;;
66597;SDS011;57424;53.128;6.406;2023-04-15T01:59:40;2.75;;;1.58;;
66597;SDS011;57424;53.128;6.406;2023-04-15T02:02:06;2.20;;;1.65;;
66597;SDS011;57424;53.128;6.406;2023-04-15T02:04:31;2.80;;;1.30;;
66597;SDS011;57424;53.128;6.406;2023-04-15T02:06:58;2.30;;;1.42;;
66597;SDS011;57424;53.128;6.406;2023-04-15T02:09:23;3.67;;;1.33;;
66597;SDS011;57424;53.128;6.406;2023-04-15T02:11:50;2.45;;;1.30;;
66597;SDS011;57424;53.128;6.406;2023-04-15T02:16:43;1.58;;;1.20;;
66597;SDS011;57424;53.128;6.406;2023-04-15T02:19:08;1.58;;;1.27;;
66597;SDS011;57424;53.128;6.406;2023-04-15T02:21:34;2.00;;;1.33;;
66597;SDS011;57424;53.128;6.406;2023-04-15T02:23:59;2.50;;;1.40;;
66597;SDS011;57424;53.128;6.406;2023-04-15T02:26:26;1.83;;;1.30;;
66597;SDS011;57424;53.128;6.406;2023-04-15T02:28:52;1.92;;;1.33;;
66597;SDS011;57424;53.128;6.406;2023-04-15T02:31:17;2.28;;;1.48;;
66597;SDS011;57424;53.128;6.406;2023-04-15T02:33:43;2.22;;;1.48;;
66597;SDS011;57424;53.128;6.406;2023-04-15T02:36:09;2.63;;;1.42;;
66597;SDS011;57424;53.128;6.406;2023-04-15T02:38:36;2.67;;;1.60;;
66597;SDS011;57424;53.128;6.406;2023-04-15T02:41:04;3.05;;;1.40;;
66597;SDS011;57424;53.128;6.406;2023-04-15T02:43:29;2.47;;;1.42;;
66597;SDS011;57424;53.128;6.406;2023-04-15T02:45:55;2.58;;;1.40;;
66597;SDS011;57424;53.128;6.406;2023-04-15T02:48:21;2.10;;;1.40;;
66597;SDS011;57424;53.128;6.406;2023-04-15T02:50:46;3.28;;;1.67;;
66597;SDS011;57424;53.128;6.406;2023-04-15T02:53:12;1.52;;;1.10;;
66597;SDS011;57424;53.128;6.406;2023-04-15T02:55:38;1.13;;;1.00;;
66597;SDS011;57424;53.128;6.406;2023-04-15T02:58:04;2.28;;;1.50;;
66597;SDS011;57424;53.128;6.406;2023-04-15T03:00:31;1.60;;;1.27;;
66597;SDS011;57424;53.128;6.406;2023-04-15T03:02:57;1.52;;;1.08;;
66597;SDS011;57424;53.128;6.406;2023-04-15T03:05:28;2.25;;;1.50;;
66597;SDS011;57424;53.128;6.406;2023-04-15T03:07:53;1.98;;;1.40;;
66597;SDS011;57424;53.128;6.406;2023-04-15T03:10:19;2.25;;;1.33;;
66597;SDS011;57424;53.128;6.406;2023-04-15T03:12:45;1.60;;;1.30;;
66597;SDS011;57424;53.128;6.406;2023-04-15T03:15:12;2.03;;;1.55;;
66597;SDS011;57424;53.128;6.406;2023-04-15T03:17:37;2.17;;;1.42;;
66597;SDS011;57424;53.128;6.406;2023-04-15T03:20:03;1.60;;;1.38;;
66597;SDS011;57424;53.128;6.406;2023-04-15T03:22:30;2.80;;;1.30;;
66597;SDS011;57424;53.128;6.406;2023-04-15T03:24:56;2.25;;;1.40;;
66597;SDS011;57424;53.128;6.406;2023-04-15T03:27:22;2.45;;;1.30;;
66597;SDS011;57424;53.128;6.406;2023-04-15T03:29:48;1.75;;;1.30;;
66597;SDS011;57424;53.128;6.406;2023-04-15T03:32:13;4.00;;;1.40;;
66597;SDS011;57424;53.128;6.406;2023-04-15T03:34:40;2.38;;;1.30;;
66597;SDS011;57424;53.128;6.406;2023-04-15T03:37:06;1.60;;;1.30;;
66597;SDS011;57424;53.128;6.406;2023-04-15T03:39:31;1.60;;;1.40;;
66597;SDS011;57424;53.128;6.406;2023-04-15T03:41:57;2.40;;;1.40;;
66597;SDS011;57424;53.128;6.406;2023-04-15T03:44:23;2.72;;;1.45;;
66597;SDS011;57424;53.128;6.406;2023-04-15T03:46:50;2.97;;;1.48;;
66597;SDS011;57424;53.128;6.406;2023-04-15T03:49:16;1.98;;;1.35;;
66597;SDS011;57424;53.128;6.406;2023-04-15T03:51:43;2.28;;;1.35;;
66597;SDS011;57424;53.128;6.406;2023-04-15T03:54:09;1.45;;;1.15;;
66597;SDS011;57424;53.128;6.406;2023-04-15T03:56:35;1.52;;;1.13;;
66597;SDS011;57424;53.128;6.406;2023-04-15T03:59:00;1.38;;;1.27;;
66597;SDS011;57424;53.128;6.406;2023-04-15T04:01:26;2.35;;;1.40;;
66597;SDS011;57424;53.128;6.406;2023-04-15T04:03:52;1.33;;;1.17;;
66597;SDS011;57424;53.128;6.406;2023-04-15T04:06:17;2.28;;;1.40;;
66597;SDS011;57424;53.128;6.406;2023-04-15T04:08:43;1.80;;;1.33;;
66597;SDS011;57424;53.128;6.406;2023-04-15T04:11:09;2.22;;;1.52;;
66597;SDS011;57424;53.128;6.406;2023-04-15T04:13:34;1.58;;;1.23;;
66597;SDS011;57424;53.128;6.406;2023-04-15T04:16:00;3.08;;;1.40;;
66597;SDS011;57424;53.128;6.406;2023-04-15T04:18:26;1.88;;;1.38;;
66597;SDS011;57424;53.128;6.406;2023-04-15T04:20:52;1.77;;;1.20;;
66597;SDS011;57424;53.128;6.406;2023-04-15T04:23:17;2.20;;;1.42;;
66597;SDS011;57424;53.128;6.406;2023-04-15T04:25:43;1.92;;;1.38;;
66597;SDS011;57424;53.128;6.406;2023-04-15T04:28:09;2.70;;;1.50;;
66597;SDS011;57424;53.128;6.406;2023-04-15T04:30:35;2.53;;;1.58;;
66597;SDS011;57424;53.128;6.406;2023-04-15T04:33:01;2.00;;;1.40;;
66597;SDS011;57424;53.128;6.406;2023-04-15T04:35:26;1.30;;;1.20;;
66597;SDS011;57424;53.128;6.406;2023-04-15T04:37:52;1.45;;;1.30;;
66597;SDS011;57424;53.128;6.406;2023-04-15T04:40:18;1.77;;;1.40;;
66597;SDS011;57424;53.128;6.406;2023-04-15T04:42:43;1.80;;;1.13;;
66597;SDS011;57424;53.128;6.406;2023-04-15T04:45:09;2.33;;;1.55;;
66597;SDS011;57424;53.128;6.406;2023-04-15T04:47:35;1.52;;;1.35;;
66597;SDS011;57424;53.128;6.406;2023-04-15T04:50:00;1.50;;;1.27;;
66597;SDS011;57424;53.128;6.406;2023-04-15T04:52:26;1.20;;;1.10;;
66597;SDS011;57424;53.128;6.406;2023-04-15T04:54:51;1.92;;;1.23;;
66597;SDS011;57424;53.128;6.406;2023-04-15T04:57:17;3.53;;;1.30;;
66597;SDS011;57424;53.128;6.406;2023-04-15T04:59:43;1.67;;;1.27;;
66597;SDS011;57424;53.128;6.406;2023-04-15T05:02:08;1.77;;;1.30;;
66597;SDS011;57424;53.128;6.406;2023-04-15T05:04:34;2.08;;;1.20;;
66597;SDS011;57424;53.128;6.406;2023-04-15T05:07:00;1.63;;;1.20;;
66597;SDS011;57424;53.128;6.406;2023-04-15T05:09:26;3.00;;;1.75;;
66597;SDS011;57424;53.128;6.406;2023-04-15T05:11:52;2.17;;;1.75;;
66597;SDS011;57424;53.128;6.406;2023-04-15T05:14:17;1.77;;;1.38;;
66597;SDS011;57424;53.128;6.406;2023-04-15T05:16:43;4.82;;;1.50;;
66597;SDS011;57424;53.128;6.406;2023-04-15T05:19:08;1.20;;;1.10;;
66597;SDS011;57424;53.128;6.406;2023-04-15T05:21:34;1.40;;;1.20;;
66597;SDS011;57424;53.128;6.406;2023-04-15T05:24:00;1.48;;;1.30;;
66597;SDS011;57424;53.128;6.406;2023-04-15T05:26:25;2.03;;;1.17;;
66597;SDS011;57424;53.128;6.406;2023-04-15T05:28:51;1.90;;;1.38;;
66597;SDS011;57424;53.128;6.406;2023-04-15T05:31:17;2.78;;;1.38;;
66597;SDS011;57424;53.128;6.406;2023-04-15T05:33:42;1.20;;;1.10;;
66597;SDS011;57424;53.128;6.406;2023-04-15T05:36:08;2.08;;;1.38;;
66597;SDS011;57424;53.128;6.406;2023-04-15T05:38:34;1.63;;;1.20;;
66597;SDS011;57424;53.128;6.406;2023-04-15T05:40:59;1.83;;;1.40;;
66597;SDS011;57424;53.128;6.406;2023-04-15T05:43:25;2.40;;;1.40;;
66597;SDS011;57424;53.128;6.406;2023-04-15T05:45:51;2.30;;;1.50;;
66597;SDS011;57424;53.128;6.406;2023-04-15T05:48:17;1.25;;;1.15;;
66597;SDS011;57424;53.128;6.406;2023-04-15T05:50:42;2.15;;;1.63;;
66597;SDS011;57424;53.128;6.406;2023-04-15T05:53:08;1.52;;;1.10;;
66597;SDS011;57424;53.128;6.406;2023-04-15T05:55:33;1.67;;;1.30;;
66597;SDS011;57424;53.128;6.406;2023-04-15T05:57:59;1.55;;;1.30;;
66597;SDS011;57424;53.128;6.406;2023-04-15T06:00:25;1.40;;;1.30;;
66597;SDS011;57424;53.128;6.406;2023-04-15T06:02:51;1.10;;;1.00;;
66597;SDS011;57424;53.128;6.406;2023-04-15T06:05:17;2.10;;;1.40;;
66597;SDS011;57424;53.128;6.406;2023-04-15T06:07:43;1.90;;;1.30;;
66597;SDS011;57424;53.128;6.406;2023-04-15T06:10:08;2.33;;;1.17;;
66597;SDS011;57424;53.128;6.406;2023-04-15T06:12:34;1.92;;;1.30;;
66597;SDS011;57424;53.128;6.406;2023-04-15T06:15:00;1.75;;;1.20;;
66597;SDS011;57424;53.128;6.406;2023-04-15T06:17:26;1.50;;;1.10;;
66597;SDS011;57424;53.128;6.406;2023-04-15T06:19:51;2.33;;;1.30;;
66597;SDS011;57424;53.128;6.406;2023-04-15T06:22:20;1.20;;;0.95;;
66597;SDS011;57424;53.128;6.406;2023-04-15T06:24:49;1.83;;;1.13;;
66597;SDS011;57424;53.128;6.406;2023-04-15T06:27:15;1.23;;;1.13;;
66597;SDS011;57424;53.128;6.406;2023-04-15T06:29:41;2.22;;;1.40;;
66597;SDS011;57424;53.128;6.406;2023-04-15T06:32:07;1.40;;;1.20;;
66597;SDS011;57424;53.128;6.406;2023-04-15T06:34:32;1.63;;;1.30;;
66597;SDS011;57424;53.128;6.406;2023-04-15T06:36:58;1.42;;;1.23;;
66597;SDS011;57424;53.128;6.406;2023-04-15T06:39:24;1.40;;;1.00;;
66597;SDS011;57424;53.128;6.406;2023-04-15T06:41:50;2.22;;;1.30;;
66597;SDS011;57424;53.128;6.406;2023-04-15T06:44:16;2.35;;;1.20;;
66597;SDS011;57424;53.128;6.406;2023-04-15T06:46:42;2.22;;;1.45;;
66597;SDS011;57424;53.128;6.406;2023-04-15T06:49:09;1.55;;;1.33;;
66597;SDS011;57424;53.128;6.406;2023-04-15T06:51:36;1.70;;;1.25;;
66597;SDS011;57424;53.128;6.406;2023-04-15T06:54:02;1.30;;;1.10;;
66597;SDS011;57424;53.128;6.406;2023-04-15T06:56:30;1.48;;;1.30;;
66597;SDS011;57424;53.128;6.406;2023-04-15T06:58:56;2.58;;;1.20;;
66597;SDS011;57424;53.128;6.406;2023-04-15T07:01:22;2.60;;;1.40;;
66597;SDS011;57424;53.128;6.406;2023-04-15T07:03:47;1.60;;;1.48;;
66597;SDS011;57424;53.128;6.406;2023-04-15T07:06:13;1.20;;;1.00;;
66597;SDS011;57424;53.128;6.406;2023-04-15T07:08:38;2.15;;;1.30;;
66597;SDS011;57424;53.128;6.406;2023-04-15T07:11:04;2.83;;;1.48;;
66597;SDS011;57424;53.128;6.406;2023-04-15T07:13:30;5.05;;;1.35;;
66597;SDS011;57424;53.128;6.406;2023-04-15T07:15:56;1.95;;;1.25;;
66597;SDS011;57424;53.128;6.406;2023-04-15T07:18:22;2.33;;;1.30;;
66597;SDS011;57424;53.128;6.406;2023-04-15T07:20:47;2.03;;;1.30;;
66597;SDS011;57424;53.128;6.406;2023-04-15T07:23:13;1.50;;;1.20;;
66597;SDS011;57424;53.128;6.406;2023-04-15T07:25:39;1.85;;;1.45;;
66597;SDS011;57424;53.128;6.406;2023-04-15T07:28:04;2.50;;;1.20;;
66597;SDS011;57424;53.128;6.406;2023-04-15T07:30:30;1.95;;;1.20;;
66597;SDS011;57424;53.128;6.406;2023-04-15T07:32:57;2.45;;;1.33;;
66597;SDS011;57424;53.128;6.406;2023-04-15T07:35:22;1.45;;;1.10;;
66597;SDS011;57424;53.128;6.406;2023-04-15T07:37:49;1.92;;;1.20;;
66597;SDS011;57424;53.128;6.406;2023-04-15T07:40:16;2.00;;;1.33;;
66597;SDS011;57424;53.128;6.406;2023-04-15T07:42:42;1.80;;;1.35;;
66597;SDS011;57424;53.128;6.406;2023-04-15T07:45:08;2.17;;;1.30;;
66597;SDS011;57424;53.128;6.406;2023-04-15T07:47:33;1.73;;;1.30;;
66597;SDS011;57424;53.128;6.406;2023-04-15T07:49:59;2.42;;;1.35;;
66597;SDS011;57424;53.128;6.406;2023-04-15T07:52:26;2.25;;;1.45;;
66597;SDS011;57424;53.128;6.406;2023-04-15T07:54:51;1.65;;;1.00;;
66597;SDS011;57424;53.128;6.406;2023-04-15T07:57:17;1.55;;;1.13;;
66597;SDS011;57424;53.128;6.406;2023-04-15T07:59:42;1.95;;;1.30;;
66597;SDS011;57424;53.128;6.406;2023-04-15T08:02:08;3.33;;;1.13;;
66597;SDS011;57424;53.128;6.406;2023-04-15T08:04:35;1.30;;;1.20;;
66597;SDS011;57424;53.128;6.406;2023-04-15T08:07:01;2.30;;;1.35;;
66597;SDS011;57424;53.128;6.406;2023-04-15T08:09:27;2.15;;;1.33;;
66597;SDS011;57424;53.128;6.406;2023-04-15T08:11:53;2.80;;;1.33;;
66597;SDS011;57424;53.128;6.406;2023-04-15T08:14:19;2.42;;;1.20;;
66597;SDS011;57424;53.128;6.406;2023-04-15T08:16:44;1.25;;;1.17;;
66597;SDS011;57424;53.128;6.406;2023-04-15T08:19:10;1.95;;;1.40;;
66597;SDS011;57424;53.128;6.406;2023-04-15T08:21:35;1.65;;;1.40;;
66597;SDS011;57424;53.128;6.406;2023-04-15T08:24:01;2.13;;;1.40;;
66597;SDS011;57424;53.128;6.406;2023-04-15T08:26:27;2.45;;;1.23;;
66597;SDS011;57424;53.128;6.406;2023-04-15T08:28:53;4.30;;;1.25;;
66597;SDS011;57424;53.128;6.406;2023-04-15T08:31:18;2.22;;;1.35;;
66597;SDS011;57424;53.128;6.406;2023-04-15T08:33:45;3.13;;;1.40;;
66597;SDS011;57424;53.128;6.406;2023-04-15T08:36:10;2.75;;;1.30;;
66597;SDS011;57424;53.128;6.406;2023-04-15T08:38:37;5.18;;;1.48;;
66597;SDS011;57424;53.128;6.406;2023-04-15T08:41:06;4.25;;;1.40;;
66597;SDS011;57424;53.128;6.406;2023-04-15T08:43:36;2.13;;;1.33;;
66597;SDS011;57424;53.128;6.406;2023-04-15T08:46:18;2.17;;;1.42;;
66597;SDS011;57424;53.128;6.406;2023-04-15T08:48:45;1.73;;;1.30;;
66597;SDS011;57424;53.128;6.406;2023-04-15T08:51:12;2.40;;;1.35;;
66597;SDS011;57424;53.128;6.406;2023-04-15T08:53:40;1.10;;;1.00;;
66597;SDS011;57424;53.128;6.406;2023-04-15T08:56:08;4.05;;;1.55;;
66597;SDS011;57424;53.128;6.406;2023-04-15T08:58:35;2.15;;;1.20;;
66597;SDS011;57424;53.128;6.406;2023-04-15T09:01:02;2.47;;;1.35;;
66597;SDS011;57424;53.128;6.406;2023-04-15T09:03:27;1.95;;;1.42;;
66597;SDS011;57424;53.128;6.406;2023-04-15T09:05:53;3.33;;;1.20;;
66597;SDS011;57424;53.128;6.406;2023-04-15T09:08:19;2.95;;;1.83;;
66597;SDS011;57424;53.128;6.406;2023-04-15T09:10:44;2.20;;;1.35;;
66597;SDS011;57424;53.128;6.406;2023-04-15T09:13:10;4.05;;;1.50;;
66597;SDS011;57424;53.128;6.406;2023-04-15T09:15:39;8.45;;;1.58;;
66597;SDS011;57424;53.128;6.406;2023-04-15T09:18:05;2.28;;;1.40;;
66597;SDS011;57424;53.128;6.406;2023-04-15T09:20:37;1.58;;;1.23;;
66597;SDS011;57424;53.128;6.406;2023-04-15T09:23:13;1.10;;;1.00;;
66597;SDS011;57424;53.128;6.406;2023-04-15T09:25:39;4.30;;;1.45;;
66597;SDS011;57424;53.128;6.406;2023-04-15T09:28:09;2.40;;;1.30;;
66597;SDS011;57424;53.128;6.406;2023-04-15T09:30:35;2.40;;;1.52;;
66597;SDS011;57424;53.128;6.406;2023-04-15T09:33:01;3.95;;;1.40;;
66597;SDS011;57424;53.128;6.406;2023-04-15T09:35:32;3.28;;;1.50;;
66597;SDS011;57424;53.128;6.406;2023-04-15T09:40:38;1.65;;;1.27;;
66597;SDS011;57424;53.128;6.406;2023-04-15T09:43:07;5.53;;;1.40;;
66597;SDS011;57424;53.128;6.406;2023-04-15T09:45:36;3.92;;;1.55;;
66597;SDS011;57424;53.128;6.406;2023-04-15T09:48:15;1.65;;;1.25;;
66597;SDS011;57424;53.128;6.406;2023-04-15T09:50:43;2.63;;;1.40;;
66597;SDS011;57424;53.128;6.406;2023-04-15T09:53:09;1.98;;;1.08;;
66597;SDS011;57424;53.128;6.406;2023-04-15T09:55:37;3.08;;;1.23;;
66597;SDS011;57424;53.128;6.406;2023-04-15T09:58:07;2.00;;;1.27;;
66597;SDS011;57424;53.128;6.406;2023-04-15T10:00:34;3.10;;;1.27;;
66597;SDS011;57424;53.128;6.406;2023-04-15T10:03:01;1.92;;;1.25;;
66597;SDS011;57424;53.128;6.406;2023-04-15T10:05:29;3.63;;;1.25;;
66597;SDS011;57424;53.128;6.406;2023-04-15T10:07:55;2.08;;;1.50;;
66597;SDS011;57424;53.128;6.406;2023-04-15T10:10:21;1.20;;;1.10;;
66597;SDS011;57424;53.128;6.406;2023-04-15T10:12:47;4.78;;;3.13;;
66597;SDS011;57424;53.128;6.406;2023-04-15T10:15:15;8.52;;;4.20;;
66597;SDS011;57424;53.128;6.406;2023-04-15T10:17:42;4.82;;;3.67;;
66597;SDS011;57424;53.128;6.406;2023-04-15T10:20:09;6.68;;;4.45;;
66597;SDS011;57424;53.128;6.406;2023-04-15T10:22:36;6.10;;;4.40;;
66597;SDS011;57424;53.128;6.406;2023-04-15T10:25:02;8.95;;;4.53;;
66597;SDS011;57424;53.128;6.406;2023-04-15T10:27:29;5.55;;;4.07;;
66597;SDS011;57424;53.128;6.406;2023-04-15T10:29:55;6.20;;;3.90;;
66597;SDS011;57424;53.128;6.406;2023-04-15T10:32:23;4.13;;;3.55;;
66597;SDS011;57424;53.128;6.406;2023-04-15T10:34:49;6.68;;;4.00;;
66597;SDS011;57424;53.128;6.406;2023-04-15T10:37:20;5.20;;;4.40;;
66597;SDS011;57424;53.128;6.406;2023-04-15T10:39:47;6.03;;;4.05;;
66597;SDS011;57424;53.128;6.406;2023-04-15T10:44:43;6.78;;;3.88;;
66597;SDS011;57424;53.128;6.406;2023-04-15T10:47:17;4.85;;;3.50;;
66597;SDS011;57424;53.128;6.406;2023-04-15T10:52:10;4.18;;;3.38;;
66597;SDS011;57424;53.128;6.406;2023-04-15T10:54:36;4.97;;;3.17;;
66597;SDS011;57424;53.128;6.406;2023-04-15T10:59:32;4.70;;;2.90;;
66597;SDS011;57424;53.128;6.406;2023-04-15T11:02:02;4.15;;;2.70;;
66597;SDS011;57424;53.128;6.406;2023-04-15T11:07:35;4.38;;;2.85;;
66597;SDS011;57424;53.128;6.406;2023-04-15T11:12:50;5.32;;;2.47;;
66597;SDS011;57424;53.128;6.406;2023-04-15T11:17:51;5.18;;;2.92;;
66597;SDS011;57424;53.128;6.406;2023-04-15T11:20:17;4.70;;;2.75;;
66597;SDS011;57424;53.128;6.406;2023-04-15T11:22:49;4.72;;;2.83;;
66597;SDS011;57424;53.128;6.406;2023-04-15T11:25:22;3.58;;;2.35;;
66597;SDS011;57424;53.128;6.406;2023-04-15T11:27:49;3.67;;;2.47;;
66597;SDS011;57424;53.128;6.406;2023-04-15T11:30:18;3.85;;;2.38;;
66597;SDS011;57424;53.128;6.406;2023-04-15T11:32:46;5.10;;;2.40;;
66597;SDS011;57424;53.128;6.406;2023-04-15T11:35:12;6.20;;;2.33;;
66597;SDS011;57424;53.128;6.406;2023-04-15T11:37:38;4.15;;;2.30;;
66597;SDS011;57424;53.128;6.406;2023-04-15T11:40:03;4.00;;;2.30;;
66597;SDS011;57424;53.128;6.406;2023-04-15T11:42:30;3.33;;;2.30;;
66597;SDS011;57424;53.128;6.406;2023-04-15T11:45:09;3.05;;;2.13;;
66597;SDS011;57424;53.128;6.406;2023-04-15T11:47:39;3.83;;;2.17;;
66597;SDS011;57424;53.128;6.406;2023-04-15T11:50:21;3.85;;;2.40;;
66597;SDS011;57424;53.128;6.406;2023-04-15T11:52:54;3.25;;;2.25;;
66597;SDS011;57424;53.128;6.406;2023-04-15T11:55:25;2.53;;;1.90;;
66597;SDS011;57424;53.128;6.406;2023-04-15T11:58:10;5.13;;;2.10;;
66597;SDS011;57424;53.128;6.406;2023-04-15T12:00:38;3.25;;;2.10;;
66597;SDS011;57424;53.128;6.406;2023-04-15T12:03:24;3.03;;;2.20;;
66597;SDS011;57424;53.128;6.406;2023-04-15T12:11:26;3.60;;;2.13;;
66597;SDS011;57424;53.128;6.406;2023-04-15T12:13:56;2.42;;;2.00;;
66597;SDS011;57424;53.128;6.406;2023-04-15T12:16:23;2.40;;;1.70;;
66597;SDS011;57424;53.128;6.406;2023-04-15T12:18:53;2.28;;;1.80;;
66597;SDS011;57424;53.128;6.406;2023-04-15T12:21:23;2.97;;;2.10;;
66597;SDS011;57424;53.128;6.406;2023-04-15T12:23:50;3.60;;;1.88;;
66597;SDS011;57424;53.128;6.406;2023-04-15T12:26:18;5.28;;;2.05;;
66597;SDS011;57424;53.128;6.406;2023-04-15T12:28:54;4.13;;;1.90;;
66597;SDS011;57424;53.128;6.406;2023-04-15T12:31:24;2.40;;;1.75;;
66597;SDS011;57424;53.128;6.406;2023-04-15T12:33:50;2.58;;;1.80;;
66597;SDS011;57424;53.128;6.406;2023-04-15T12:36:15;2.33;;;1.50;;
66597;SDS011;57424;53.128;6.406;2023-04-15T12:38:41;2.88;;;1.90;;
66597;SDS011;57424;53.128;6.406;2023-04-15T12:41:06;3.17;;;1.98;;
66597;SDS011;57424;53.128;6.406;2023-04-15T12:43:32;1.98;;;1.60;;
66597;SDS011;57424;53.128;6.406;2023-04-15T12:45:57;2.30;;;1.77;;
66597;SDS011;57424;53.128;6.406;2023-04-15T12:48:23;2.47;;;1.80;;
66597;SDS011;57424;53.128;6.406;2023-04-15T12:50:49;2.50;;;1.58;;
66597;SDS011;57424;53.128;6.406;2023-04-15T12:53:14;2.78;;;1.60;;
66597;SDS011;57424;53.128;6.406;2023-04-15T12:55:40;2.90;;;1.55;;
66597;SDS011;57424;53.128;6.406;2023-04-15T12:58:06;3.70;;;1.90;;
66597;SDS011;57424;53.128;6.406;2023-04-15T13:00:33;2.38;;;1.88;;
66597;SDS011;57424;53.128;6.406;2023-04-15T13:02:59;2.40;;;1.70;;
66597;SDS011;57424;53.128;6.406;2023-04-15T13:05:24;2.58;;;1.30;;
66597;SDS011;57424;53.128;6.406;2023-04-15T13:07:50;2.63;;;1.60;;
66597;SDS011;57424;53.128;6.406;2023-04-15T13:10:16;3.13;;;1.65;;
66597;SDS011;57424;53.128;6.406;2023-04-15T13:12:41;2.65;;;1.40;;
66597;SDS011;57424;53.128;6.406;2023-04-15T13:15:07;3.03;;;1.67;;
66597;SDS011;57424;53.128;6.406;2023-04-15T13:17:35;1.38;;;1.17;;
66597;SDS011;57424;53.128;6.406;2023-04-15T13:20:01;3.42;;;1.70;;
66597;SDS011;57424;53.128;6.406;2023-04-15T13:22:26;2.90;;;1.60;;
66597;SDS011;57424;53.128;6.406;2023-04-15T13:24:52;2.80;;;1.50;;
66597;SDS011;57424;53.128;6.406;2023-04-15T13:27:17;2.33;;;1.60;;
66597;SDS011;57424;53.128;6.406;2023-04-15T13:29:43;3.03;;;1.40;;
66597;SDS011;57424;53.128;6.406;2023-04-15T13:32:08;3.50;;;1.45;;
66597;SDS011;57424;53.128;6.406;2023-04-15T13:34:34;3.08;;;1.52;;
66597;SDS011;57424;53.128;6.406;2023-04-15T13:37:05;1.92;;;1.55;;
66597;SDS011;57424;53.128;6.406;2023-04-15T13:39:31;5.95;;;2.15;;
66597;SDS011;57424;53.128;6.406;2023-04-15T13:41:57;2.75;;;1.50;;
66597;SDS011;57424;53.128;6.406;2023-04-15T13:44:23;2.53;;;1.45;;
66597;SDS011;57424;53.128;6.406;2023-04-15T13:46:48;3.22;;;1.42;;
66597;SDS011;57424;53.128;6.406;2023-04-15T13:49:14;3.28;;;1.20;;
66597;SDS011;57424;53.128;6.406;2023-04-15T13:51:39;2.22;;;1.35;;
66597;SDS011;57424;53.128;6.406;2023-04-15T13:54:05;2.58;;;1.52;;
66597;SDS011;57424;53.128;6.406;2023-04-15T13:56:31;2.45;;;1.38;;
66597;SDS011;57424;53.128;6.406;2023-04-15T13:58:57;4.45;;;1.70;;
66597;SDS011;57424;53.128;6.406;2023-04-15T14:01:25;1.70;;;1.20;;
66597;SDS011;57424;53.128;6.406;2023-04-15T14:03:51;2.72;;;1.40;;
66597;SDS011;57424;53.128;6.406;2023-04-15T14:06:17;2.65;;;1.58;;
66597;SDS011;57424;53.128;6.406;2023-04-15T14:08:42;2.30;;;1.33;;
66597;SDS011;57424;53.128;6.406;2023-04-15T14:11:08;3.33;;;1.80;;
66597;SDS011;57424;53.128;6.406;2023-04-15T14:13:34;2.55;;;1.30;;
66597;SDS011;57424;53.128;6.406;2023-04-15T14:16:00;2.25;;;1.33;;
66597;SDS011;57424;53.128;6.406;2023-04-15T14:18:25;3.38;;;1.77;;
66597;SDS011;57424;53.128;6.406;2023-04-15T14:20:51;3.20;;;1.58;;
66597;SDS011;57424;53.128;6.406;2023-04-15T14:23:17;2.25;;;1.60;;
66597;SDS011;57424;53.128;6.406;2023-04-15T14:25:43;2.58;;;1.55;;
66597;SDS011;57424;53.128;6.406;2023-04-15T14:28:08;2.70;;;1.75;;
66597;SDS011;57424;53.128;6.406;2023-04-15T14:30:34;2.33;;;1.50;;
66597;SDS011;57424;53.128;6.406;2023-04-15T14:32:59;2.28;;;1.50;;
66597;SDS011;57424;53.128;6.406;2023-04-15T14:35:25;2.17;;;1.30;;
66597;SDS011;57424;53.128;6.406;2023-04-15T14:37:54;2.63;;;1.40;;
66597;SDS011;57424;53.128;6.406;2023-04-15T14:40:20;1.55;;;1.38;;
66597;SDS011;57424;53.128;6.406;2023-04-15T14:42:45;1.65;;;1.27;;
66597;SDS011;57424;53.128;6.406;2023-04-15T14:45:11;2.83;;;1.45;;
66597;SDS011;57424;53.128;6.406;2023-04-15T14:47:36;3.15;;;1.23;;
66597;SDS011;57424;53.128;6.406;2023-04-15T14:50:02;2.15;;;1.30;;
66597;SDS011;57424;53.128;6.406;2023-04-15T14:52:31;3.40;;;1.02;;
66597;SDS011;57424;53.128;6.406;2023-04-15T14:55:02;3.03;;;1.40;;
66597;SDS011;57424;53.128;6.406;2023-04-15T14:57:32;5.45;;;1.58;;
66597;SDS011;57424;53.128;6.406;2023-04-15T14:59:58;2.90;;;1.35;;
66597;SDS011;57424;53.128;6.406;2023-04-15T15:02:23;1.90;;;1.30;;
66597;SDS011;57424;53.128;6.406;2023-04-15T15:04:49;2.33;;;1.40;;
66597;SDS011;57424;53.128;6.406;2023-04-15T15:07:15;2.28;;;1.33;;
66597;SDS011;57424;53.128;6.406;2023-04-15T15:09:41;3.17;;;1.20;;